createdAt,value
2023-03-26T00:01:30.065Z,4.85
2023-03-26T00:03:58.529Z,7.85
2023-03-26T00:06:30.252Z,6.95
2023-03-26T00:08:59.143Z,6.13
2023-03-26T00:11:29.190Z,8.63
2023-03-26T00:13:58.098Z,4.55
2023-03-26T00:16:28.025Z,5.95
2023-03-26T00:18:57.566Z,7.45
2023-03-26T00:21:28.967Z,4.60
2023-03-26T00:23:59.879Z,6.90
2023-03-26T00:26:29.687Z,5.60
2023-03-26T00:29:00.282Z,6.05
2023-03-26T00:31:29.147Z,6.22
2023-03-26T00:33:57.732Z,8.63
2023-03-26T00:36:27.364Z,5.95
2023-03-26T00:38:57.027Z,4.18
2023-03-26T00:41:31.074Z,5.20
2023-03-26T00:44:00.766Z,5.85
2023-03-26T00:46:30.408Z,6.78
2023-03-26T00:49:00.096Z,8.65
2023-03-26T00:51:29.905Z,7.22
2023-03-26T00:53:59.048Z,7.43
2023-03-26T00:56:27.054Z,9.77
2023-03-26T00:58:55.017Z,6.93
2023-03-26T01:01:27.509Z,9.05
2023-03-26T01:04:08.106Z,4.95
2023-03-26T01:06:42.405Z,6.68
2023-03-26T01:09:16.639Z,8.63
2023-03-26T01:11:45.185Z,6.25
2023-03-26T01:14:17.209Z,7.50
2023-03-26T01:16:49.784Z,8.30
2023-03-26T01:19:26.578Z,8.65
2023-03-26T01:21:56.234Z,6.63
2023-03-26T01:24:26.253Z,6.95
2023-03-26T01:27:09.780Z,8.07
2023-03-26T01:29:46.369Z,5.55
2023-03-26T01:32:40.051Z,7.60
2023-03-26T01:35:22.552Z,7.93
2023-03-26T01:38:10.991Z,6.93
2023-03-26T01:40:46.795Z,10.77
2023-03-26T01:43:26.419Z,9.40
2023-03-26T01:45:55.760Z,10.32
2023-03-26T01:48:31.690Z,7.75
2023-03-26T01:50:59.819Z,6.95
2023-03-26T01:53:28.589Z,9.27
2023-03-26T01:56:06.922Z,7.78
2023-03-26T01:58:42.307Z,8.88
2023-03-26T02:01:25.453Z,11.15
2023-03-26T02:04:00.224Z,8.38
2023-03-26T02:06:37.444Z,9.60
2023-03-26T02:09:10.313Z,14.25
2023-03-26T02:11:42.447Z,6.25
2023-03-26T02:14:11.162Z,8.07
2023-03-26T02:16:40.635Z,5.25
2023-03-26T02:19:15.437Z,9.02
2023-03-26T02:21:43.684Z,6.07
2023-03-26T02:24:12.474Z,9.85
2023-03-26T02:26:42.370Z,7.97
2023-03-26T02:29:13.515Z,8.38
2023-03-26T02:31:44.162Z,12.88
2023-03-26T02:34:12.648Z,9.82
2023-03-26T02:36:47.597Z,6.35
2023-03-26T02:39:15.847Z,6.82
2023-03-26T02:41:52.944Z,5.20
2023-03-26T02:44:22.184Z,12.85
2023-03-26T02:46:58.976Z,6.88
2023-03-26T02:49:50.631Z,7.47
2023-03-26T02:52:43.026Z,6.88
2023-03-26T02:55:11.027Z,8.40
2023-03-26T02:57:42.638Z,8.32
2023-03-26T03:00:22.736Z,9.00
2023-03-26T03:02:52.757Z,10.48
2023-03-26T03:05:21.514Z,4.80
2023-03-26T03:07:58.071Z,8.73
2023-03-26T03:10:28.495Z,10.77
2023-03-26T03:13:21.686Z,7.82
2023-03-26T03:15:49.630Z,9.35
2023-03-26T03:18:17.507Z,13.90
2023-03-26T03:20:45.793Z,6.03
2023-03-26T03:23:14.488Z,9.20
2023-03-26T03:25:42.930Z,7.65
2023-03-26T03:28:11.122Z,6.82
2023-03-26T03:30:40.619Z,6.60
2023-03-26T03:33:20.360Z,9.57
2023-03-26T03:35:49.599Z,9.80
2023-03-26T03:38:19.399Z,7.15
2023-03-26T03:40:51.116Z,6.30
2023-03-26T03:43:19.867Z,6.30
2023-03-26T03:46:06.954Z,9.50
2023-03-26T03:48:39.134Z,6.28
2023-03-26T03:51:08.759Z,5.65
2023-03-26T03:54:13.211Z,4.80
2023-03-26T03:56:47.340Z,7.88
2023-03-26T03:59:18.514Z,7.95
2023-03-26T04:01:48.633Z,5.43
2023-03-26T04:04:34.295Z,5.88
2023-03-26T04:07:05.380Z,6.05
2023-03-26T04:09:48.834Z,8.32
2023-03-26T04:12:19.096Z,6.57
2023-03-26T04:15:00.320Z,10.57
2023-03-26T04:17:30.465Z,6.88
2023-03-26T04:20:05.711Z,8.25
2023-03-26T04:22:35.548Z,9.63
2023-03-26T04:25:07.588Z,6.78
2023-03-26T04:27:58.434Z,8.77
2023-03-26T04:30:49.002Z,8.85
2023-03-26T04:33:34.845Z,8.60
2023-03-26T04:36:03.940Z,7.75
2023-03-26T04:38:41.253Z,12.02
2023-03-26T04:41:13.420Z,9.32
2023-03-26T04:43:50.751Z,9.82
2023-03-26T04:46:37.447Z,7.07
2023-03-26T04:49:14.655Z,7.90
2023-03-26T04:51:45.759Z,7.40
2023-03-26T04:54:34.715Z,7.72
2023-03-26T04:57:12.060Z,9.05
2023-03-26T04:59:44.760Z,6.90
2023-03-26T05:02:15.530Z,9.38
2023-03-26T05:04:51.675Z,10.20
2023-03-26T05:07:22.378Z,10.07
2023-03-26T05:09:53.311Z,9.00
2023-03-26T05:12:32.033Z,10.13
2023-03-26T05:15:37.836Z,8.45
2023-03-26T05:18:10.368Z,10.35
2023-03-26T05:20:50.220Z,9.93
2023-03-26T05:23:18.756Z,11.65
2023-03-26T05:25:54.037Z,10.23
2023-03-26T05:28:26.685Z,8.40
2023-03-26T05:31:02.612Z,14.43
2023-03-26T05:33:35.111Z,10.32
2023-03-26T05:36:13.079Z,13.80
2023-03-26T05:38:47.240Z,12.57
2023-03-26T05:41:20.377Z,9.60
2023-03-26T05:43:51.125Z,8.50
2023-03-26T05:46:24.052Z,10.23
2023-03-26T05:48:52.800Z,9.43
2023-03-26T05:51:24.224Z,8.90
2023-03-26T05:54:12.412Z,10.07
2023-03-26T05:57:03.430Z,13.68
2023-03-26T05:59:49.779Z,7.50
2023-03-26T06:02:42.311Z,13.45
2023-03-26T06:05:27.131Z,12.63
2023-03-26T06:08:16.708Z,11.02
2023-03-26T06:10:50.962Z,11.88
2023-03-26T06:13:19.110Z,15.48
2023-03-26T06:15:49.559Z,29.88
2023-03-26T06:18:34.172Z,19.27
2023-03-26T06:21:17.222Z,15.27
2023-03-26T06:23:53.925Z,14.90
2023-03-26T06:26:44.333Z,13.20
2023-03-26T06:29:31.752Z,16.00
2023-03-26T06:32:20.817Z,14.93
2023-03-26T06:35:15.272Z,11.38
2023-03-26T06:37:43.663Z,15.35
2023-03-26T06:40:14.848Z,10.60
2023-03-26T06:43:07.666Z,12.60
2023-03-26T06:45:52.790Z,13.18
2023-03-26T06:48:39.286Z,10.30
2023-03-26T06:51:22.241Z,8.55
2023-03-26T06:54:08.398Z,7.38
2023-03-26T06:56:56.678Z,10.43
2023-03-26T07:00:03.571Z,14.98
2023-03-26T07:02:50.096Z,16.27
2023-03-26T07:05:36.983Z,10.88
2023-03-26T07:08:25.877Z,11.10
2023-03-26T07:11:13.218Z,13.40
2023-03-26T07:13:59.544Z,8.88
2023-03-26T07:16:48.671Z,10.40
2023-03-26T07:19:32.036Z,10.38
2023-03-26T07:22:01.163Z,7.53
2023-03-26T07:24:50.337Z,10.05
2023-03-26T07:27:48.244Z,10.40
2023-03-26T07:30:34.015Z,10.50
2023-03-26T07:33:28.263Z,10.38
2023-03-26T07:36:22.735Z,13.35
2023-03-26T07:39:31.197Z,8.77
2023-03-26T07:42:46.989Z,11.00
2023-03-26T07:45:40.824Z,9.70
2023-03-26T07:48:27.243Z,12.05
2023-03-26T07:51:02.923Z,28.63
2023-03-26T07:54:00.911Z,14.30
2023-03-26T07:56:47.349Z,15.38
2023-03-26T07:59:35.608Z,14.15
2023-03-26T08:02:42.248Z,12.23
2023-03-26T08:05:31.719Z,8.43
2023-03-26T08:08:25.511Z,9.95
2023-03-26T08:11:28.050Z,13.23
2023-03-26T08:14:11.245Z,13.07
2023-03-26T08:16:47.818Z,10.55
2023-03-26T08:19:38.676Z,13.98
2023-03-26T08:22:13.814Z,13.80
2023-03-26T08:24:50.806Z,13.55
2023-03-26T08:27:27.978Z,11.20
2023-03-26T08:30:02.340Z,14.43
2023-03-26T08:32:31.385Z,11.40
2023-03-26T08:35:05.127Z,11.48
2023-03-26T08:37:33.076Z,11.20
2023-03-26T08:40:01.230Z,11.90
2023-03-26T08:42:54.795Z,13.93
2023-03-26T08:45:43.091Z,14.75
2023-03-26T08:49:01.465Z,11.05
2023-03-26T08:52:03.399Z,14.75
2023-03-26T08:55:08.742Z,8.20
2023-03-26T08:58:35.000Z,9.18
2023-03-26T09:01:45.715Z,10.68
2023-03-26T09:04:39.600Z,10.00
2023-03-26T09:07:35.568Z,11.30
2023-03-26T09:10:51.837Z,12.65
2023-03-26T09:13:50.961Z,11.38
2023-03-26T09:16:58.421Z,11.02
2023-03-26T09:20:01.116Z,9.10
2023-03-26T09:23:15.027Z,11.73
2023-03-26T09:26:05.651Z,12.48
2023-03-26T09:29:13.966Z,8.63
2023-03-26T09:31:57.889Z,12.38
2023-03-26T09:34:33.118Z,10.68
2023-03-26T09:37:24.822Z,10.43
2023-03-26T09:40:05.064Z,9.07
2023-03-26T09:42:44.267Z,9.55
2023-03-26T09:45:41.108Z,8.73
2023-03-26T09:48:42.164Z,10.02
2023-03-26T09:51:38.181Z,11.70
2023-03-26T09:54:44.316Z,10.32
2023-03-26T09:57:30.183Z,9.88
2023-03-26T10:00:10.794Z,9.10
2023-03-26T10:03:08.705Z,11.70
2023-03-26T10:05:48.595Z,9.32
2023-03-26T10:08:44.412Z,6.53
2023-03-26T10:11:21.128Z,7.47
2023-03-26T10:14:01.368Z,6.93
2023-03-26T10:16:40.997Z,7.35
2023-03-26T10:19:22.217Z,5.95
2023-03-26T10:22:01.885Z,6.15
2023-03-26T10:24:44.993Z,7.57
2023-03-26T10:27:38.418Z,5.45
2023-03-26T10:30:33.392Z,6.20
2023-03-26T10:33:14.906Z,7.13
2023-03-26T10:36:01.560Z,5.10
2023-03-26T10:38:41.343Z,7.60
2023-03-26T10:41:15.465Z,6.15
2023-03-26T10:44:19.705Z,8.80
2023-03-26T10:47:09.280Z,8.00
2023-03-26T10:50:01.431Z,8.43
2023-03-26T10:52:36.067Z,7.55
2023-03-26T10:55:15.939Z,9.02
2023-03-26T10:57:50.543Z,8.35
2023-03-26T11:00:25.335Z,7.30
2023-03-26T11:03:19.900Z,9.65
2023-03-26T11:05:56.535Z,11.68
2023-03-26T11:08:32.771Z,8.60
2023-03-26T11:11:11.483Z,8.35
2023-03-26T11:13:49.665Z,7.53
2023-03-26T11:16:26.928Z,3.88
2023-03-26T11:19:01.023Z,3.83
2023-03-26T11:21:36.135Z,1.73
2023-03-26T11:24:48.372Z,3.25
2023-03-26T11:27:28.556Z,2.38
2023-03-26T11:30:11.406Z,2.72
2023-03-26T11:32:44.570Z,1.65
2023-03-26T11:35:40.249Z,1.83
2023-03-26T11:38:19.873Z,2.53
2023-03-26T11:40:51.152Z,2.40
2023-03-26T11:43:37.460Z,2.53
2023-03-26T11:46:10.822Z,3.60
2023-03-26T11:48:44.435Z,2.53
2023-03-26T11:51:17.556Z,1.48
2023-03-26T11:53:48.152Z,9.38
2023-03-26T11:56:25.997Z,4.90
2023-03-26T11:59:01.173Z,1.42
2023-03-26T12:01:41.728Z,1.95
2023-03-26T12:04:13.710Z,3.13
2023-03-26T12:06:53.265Z,5.20
2023-03-26T12:09:22.883Z,2.05
2023-03-26T12:11:56.233Z,2.90
2023-03-26T12:14:27.549Z,2.88
2023-03-26T12:17:02.086Z,2.08
2023-03-26T12:19:38.322Z,1.70
2023-03-26T12:22:07.225Z,2.92
2023-03-26T12:24:38.189Z,1.23
2023-03-26T12:27:23.020Z,2.25
2023-03-26T12:29:55.182Z,2.40
2023-03-26T12:32:29.667Z,2.42
2023-03-26T12:35:41.227Z,3.40
2023-03-26T12:38:23.323Z,1.92
2023-03-26T12:44:42.402Z,4.45
2023-03-26T12:44:51.666Z,4.40
2023-03-26T12:48:00.298Z,2.15
2023-03-26T12:50:09.697Z,2.53
2023-03-26T12:52:56.847Z,2.00
2023-03-26T12:55:53.009Z,3.28
2023-03-26T12:58:44.193Z,1.85
2023-03-26T13:01:24.342Z,3.00
2023-03-26T13:04:25.873Z,4.35
2023-03-26T13:07:01.985Z,4.53
2023-03-26T13:09:45.713Z,4.57
2023-03-26T13:12:28.041Z,2.83
2023-03-26T13:15:17.910Z,3.17
2023-03-26T13:17:55.723Z,4.25
2023-03-26T13:20:33.739Z,2.78
2023-03-26T13:23:10.908Z,1.83
2023-03-26T13:25:47.618Z,2.95
2023-03-26T13:28:29.008Z,3.72
2023-03-26T13:31:08.684Z,3.05
2023-03-26T13:33:45.052Z,3.28
2023-03-26T13:36:24.224Z,4.85
2023-03-26T13:39:08.197Z,2.80
2023-03-26T13:42:00.991Z,6.32
2023-03-26T13:44:39.643Z,10.13
2023-03-26T13:47:17.277Z,4.57
2023-03-26T13:49:50.113Z,4.13
2023-03-26T13:52:26.186Z,3.22
2023-03-26T13:55:03.452Z,4.13
2023-03-26T13:57:37.366Z,4.32
2023-03-26T14:00:13.130Z,5.65
2023-03-26T14:02:44.375Z,5.95
2023-03-26T14:05:21.328Z,4.70
2023-03-26T14:07:54.518Z,3.13
2023-03-26T14:10:26.975Z,4.03
2023-03-26T14:13:01.023Z,4.25
2023-03-26T14:15:34.105Z,3.17
2023-03-26T14:18:14.625Z,3.47
2023-03-26T14:21:11.131Z,2.35
2023-03-26T14:24:04.492Z,15.85
2023-03-26T14:26:48.166Z,2.20
2023-03-26T14:29:32.745Z,4.03
2023-03-26T14:32:40.778Z,3.47
2023-03-26T14:35:29.539Z,3.78
2023-03-26T14:38:16.256Z,4.70
2023-03-26T14:41:10.737Z,3.03
2023-03-26T14:44:22.387Z,2.40
2023-03-26T14:47:11.244Z,2.47
2023-03-26T14:50:21.435Z,4.70
2023-03-26T14:52:52.619Z,4.35
2023-03-26T14:55:49.935Z,4.28
2023-03-26T14:58:58.087Z,3.25
2023-03-26T15:01:28.559Z,3.67
2023-03-26T15:04:43.685Z,3.88
2023-03-26T15:07:36.735Z,3.60
2023-03-26T15:10:26.784Z,6.88
2023-03-26T15:13:16.529Z,5.13
2023-03-26T15:16:12.687Z,3.05
2023-03-26T15:19:03.865Z,2.90
2023-03-26T15:21:52.415Z,3.90
2023-03-26T15:24:45.435Z,4.50
2023-03-26T15:27:52.423Z,3.35
2023-03-26T15:31:03.535Z,4.97
2023-03-26T15:34:30.473Z,5.32
2023-03-26T15:37:37.131Z,1.65
2023-03-26T15:40:45.498Z,1.92
2023-03-26T15:43:20.326Z,3.67
2023-03-26T15:45:53.933Z,3.13
2023-03-26T15:48:43.622Z,2.10
2023-03-26T15:51:46.897Z,1.38
2023-03-26T15:54:24.438Z,3.38
2023-03-26T15:57:21.112Z,3.28
2023-03-26T16:00:22.284Z,5.07
2023-03-26T16:03:10.125Z,2.15
2023-03-26T16:05:56.480Z,2.65
2023-03-26T16:08:38.705Z,3.00
2023-03-26T16:11:12.739Z,1.60
2023-03-26T16:13:44.924Z,3.35
2023-03-26T16:16:46.605Z,2.25
2023-03-26T16:19:37.471Z,2.90
2023-03-26T16:22:09.833Z,2.03
2023-03-26T16:24:42.696Z,2.80
2023-03-26T16:27:33.861Z,4.20
2023-03-26T16:30:10.255Z,2.80
2023-03-26T16:32:42.697Z,2.40
2023-03-26T16:35:39.784Z,3.47
2023-03-26T16:38:14.745Z,2.88
2023-03-26T16:41:03.984Z,3.25
2023-03-26T16:43:47.825Z,1.80
2023-03-26T16:46:32.737Z,1.98
2023-03-26T16:49:09.139Z,2.88
2023-03-26T16:51:53.816Z,3.58
2023-03-26T16:54:27.070Z,2.22
2023-03-26T16:57:01.985Z,1.90
2023-03-26T17:00:04.603Z,1.67
2023-03-26T17:02:46.438Z,1.67
2023-03-26T17:05:22.506Z,3.28
2023-03-26T17:07:56.385Z,1.73
2023-03-26T17:10:33.731Z,1.23
2023-03-26T17:13:08.399Z,2.53
2023-03-26T17:15:47.150Z,1.65
2023-03-26T17:18:35.968Z,12.50
2023-03-26T17:21:13.612Z,3.55
2023-03-26T17:23:58.534Z,0.77
2023-03-26T17:26:41.465Z,1.23
2023-03-26T17:29:24.034Z,5.20
2023-03-26T17:32:00.458Z,1.15
2023-03-26T17:34:46.749Z,0.77
2023-03-26T17:37:50.221Z,1.95
2023-03-26T17:40:51.027Z,0.85
2023-03-26T17:43:45.969Z,3.08
2023-03-26T17:46:23.959Z,0.75
2023-03-26T17:49:00.746Z,1.45
2023-03-26T17:51:40.390Z,0.70
2023-03-26T17:54:19.357Z,1.58
2023-03-26T17:56:49.057Z,3.88
2023-03-26T17:59:23.601Z,1.65
2023-03-26T18:01:59.049Z,4.43
2023-03-26T18:04:34.127Z,2.33
2023-03-26T18:07:21.100Z,1.17
2023-03-26T18:10:13.555Z,1.63
2023-03-26T18:13:04.213Z,1.23
2023-03-26T18:15:41.553Z,1.00
2023-03-26T18:18:18.104Z,1.52
2023-03-26T18:20:48.039Z,3.00
2023-03-26T18:23:25.312Z,4.22
2023-03-26T18:26:10.197Z,3.28
2023-03-26T18:28:43.340Z,4.60
2023-03-26T18:31:19.880Z,3.72
2023-03-26T18:33:52.360Z,1.92
2023-03-26T18:36:24.610Z,1.52
2023-03-26T18:38:59.535Z,3.45
2023-03-26T18:41:41.972Z,2.33
2023-03-26T18:44:16.416Z,2.40
2023-03-26T18:46:45.698Z,2.63
2023-03-26T18:49:21.046Z,2.70
2023-03-26T18:51:57.699Z,4.10
2023-03-26T18:54:31.307Z,1.98
2023-03-26T18:57:15.153Z,1.33
2023-03-26T18:59:45.664Z,1.33
2023-03-26T19:02:16.918Z,1.42
2023-03-26T19:04:49.717Z,2.97
2023-03-26T19:07:22.664Z,2.58
2023-03-26T19:09:56.262Z,2.60
2023-03-26T19:12:30.916Z,1.40
2023-03-26T19:15:08.110Z,3.30
2023-03-26T19:17:42.065Z,2.97
2023-03-26T19:20:18.624Z,2.55
2023-03-26T19:22:48.386Z,4.25
2023-03-26T19:25:23.750Z,4.38
2023-03-26T19:27:54.056Z,3.20
2023-03-26T19:30:30.974Z,5.78
2023-03-26T19:33:12.219Z,5.82
2023-03-26T19:35:43.652Z,4.20
2023-03-26T19:38:30.885Z,8.18
2023-03-26T19:40:59.417Z,4.38
2023-03-26T19:43:29.865Z,4.82
2023-03-26T19:46:01.267Z,7.47
2023-03-26T19:48:46.219Z,4.53
2023-03-26T19:51:23.076Z,3.25
2023-03-26T19:53:55.200Z,1.92
2023-03-26T19:56:24.071Z,2.17
2023-03-26T19:58:54.383Z,2.20
2023-03-26T20:01:24.811Z,1.95
2023-03-26T20:03:57.783Z,1.23
2023-03-26T20:06:42.416Z,1.27
2023-03-26T20:09:12.650Z,5.25
2023-03-26T20:11:41.698Z,1.90
2023-03-26T20:14:16.940Z,1.05
2023-03-26T20:16:46.236Z,2.13
2023-03-26T20:19:15.798Z,0.90
2023-03-26T20:21:44.956Z,1.92
2023-03-26T20:24:15.857Z,2.22
2023-03-26T20:26:44.274Z,1.00
2023-03-26T20:29:15.380Z,1.67
2023-03-26T20:31:47.562Z,0.85
2023-03-26T20:34:18.527Z,0.77
2023-03-26T20:36:48.001Z,0.70
2023-03-26T20:39:16.524Z,1.67
2023-03-26T20:41:48.407Z,1.15
2023-03-26T20:44:19.479Z,0.90
2023-03-26T20:46:49.905Z,1.13
2023-03-26T20:49:19.402Z,0.60
2023-03-26T20:51:48.965Z,1.67
2023-03-26T20:54:19.888Z,0.57
2023-03-26T20:56:52.608Z,0.77
2023-03-26T20:59:27.273Z,3.05
2023-03-26T21:01:58.089Z,1.90
2023-03-26T21:04:27.639Z,1.15
2023-03-26T21:07:06.684Z,1.67
2023-03-26T21:09:36.624Z,1.35
2023-03-26T21:12:08.035Z,0.90
2023-03-26T21:14:41.840Z,0.90
2023-03-26T21:17:15.793Z,1.40
2023-03-26T21:19:45.323Z,1.90
2023-03-26T21:22:25.744Z,0.70
2023-03-26T21:25:05.383Z,1.67
2023-03-26T21:27:43.902Z,1.45
2023-03-26T21:30:16.565Z,1.20
2023-03-26T21:32:46.271Z,1.42
2023-03-26T21:35:16.128Z,1.35
2023-03-26T21:37:46.885Z,1.40
2023-03-26T21:40:16.977Z,1.48
2023-03-26T21:42:46.813Z,2.42
2023-03-26T21:45:17.231Z,2.33
2023-03-26T21:47:47.242Z,1.23
2023-03-26T21:50:17.596Z,1.58
2023-03-26T21:52:50.785Z,1.83
2023-03-26T21:55:20.362Z,1.52
2023-03-26T21:58:11.833Z,1.02
2023-03-26T22:00:50.610Z,1.88
2023-03-26T22:03:26.752Z,1.20
2023-03-26T22:06:03.009Z,1.90
2023-03-26T22:08:35.008Z,3.15
2023-03-26T22:11:02.843Z,1.90
2023-03-26T22:13:31.355Z,1.10
2023-03-26T22:16:01.334Z,1.52
2023-03-26T22:18:32.785Z,1.77
2023-03-26T22:21:00.991Z,2.92
2023-03-26T22:23:34.408Z,1.75
2023-03-26T22:26:03.060Z,2.85
2023-03-26T22:28:32.547Z,4.65
2023-03-26T22:31:07.236Z,1.70
2023-03-26T22:33:36.326Z,1.90
2023-03-26T22:36:04.638Z,1.60
2023-03-26T22:38:32.901Z,1.42
2023-03-26T22:41:00.834Z,2.70
2023-03-26T22:43:29.176Z,2.03
2023-03-26T22:45:57.597Z,2.17
2023-03-26T22:48:26.921Z,2.17
2023-03-26T22:51:03.030Z,2.17
2023-03-26T22:53:32.530Z,2.42
2023-03-26T22:56:01.788Z,1.85
2023-03-26T22:58:29.792Z,2.22
2023-03-26T23:01:04.320Z,1.63
2023-03-26T23:03:37.587Z,2.28
2023-03-26T23:06:08.254Z,2.75
2023-03-26T23:08:38.093Z,3.67
2023-03-26T23:11:09.587Z,2.10
2023-03-26T23:13:37.761Z,3.42
2023-03-26T23:16:06.761Z,2.95
2023-03-26T23:18:36.640Z,2.88
2023-03-26T23:21:05.976Z,3.63
2023-03-26T23:23:40.149Z,3.35
2023-03-26T23:26:08.401Z,3.40
2023-03-26T23:28:37.292Z,3.85
2023-03-26T23:31:07.530Z,6.70
2023-03-26T23:33:39.584Z,8.57
2023-03-26T23:36:09.741Z,9.30
2023-03-26T23:38:43.711Z,7.28
2023-03-26T23:41:15.362Z,7.78
2023-03-26T23:43:53.819Z,10.25
2023-03-26T23:46:24.725Z,6.03
2023-03-26T23:48:55.149Z,8.50
2023-03-26T23:51:24.017Z,9.05
2023-03-26T23:53:52.512Z,9.48
2023-03-26T23:56:20.931Z,13.57
